This is the latest recevied weather packets stored in our database for station/object N8TWM-13. If no packets are shown the sender has not sent any weather packets the latest 10 day(s).
| Time | Temp. | Humidity | Pressure | Rain* | Wind** | Luminosity | Snow |
|---|---|---|---|---|---|---|---|
| 1778017199 | 15° C | 92% | 1007.7 hPa | 0 mm | - | 17 W/m² | - |
| 1778016897 | 15° C | 91% | 1007.4 hPa | 0 mm | - | 39 W/m² | - |
| 1778016593 | 15.56° C | 91% | 1007.3 hPa | 0 mm | - | 60 W/m² | - |
| 1778016289 | 15.56° C | 91% | 1007.7 hPa | 0 mm | - | 40 W/m² | - |
| 1778015986 | 15.56° C | 91% | 1007.4 hPa | 0 mm | - | 83 W/m² | - |
| 1778015684 | 15° C | 91% | 1007.5 hPa | 0 mm | - | 80 W/m² | - |
| 1778015380 | 15° C | 92% | 1007.6 hPa | 0 mm | - | 97 W/m² | - |
| 1778015077 | 15° C | 92% | 1007.8 hPa | 0 mm | - | 85 W/m² | - |
| 1778014773 | 15° C | 92% | 1007.7 hPa | 0 mm | - | 131 W/m² | - |
| 1778014472 | 15° C | 92% | 1007.7 hPa | 0 mm | - | 118 W/m² | - |
| 1778014168 | 15° C | 92% | 1007.8 hPa | 0 mm | - | 135 W/m² | - |
| 1778013866 | 15° C | 92% | 1008 hPa | 0 mm | - | 74 W/m² | - |
| 1778013563 | 15° C | 92% | 1008 hPa | 0 mm | - | 71 W/m² | - |
| 1778013260 | 15° C | 92% | 1007.8 hPa | 0 mm | - | 136 W/m² | - |
| 1778012956 | 15° C | 92% | 1008 hPa | 0 mm | - | 67 W/m² | - |
| 1778012653 | 14.44° C | 92% | 1007.9 hPa | 0 mm | - | 88 W/m² | - |
| 1778012349 | 14.44° C | 92% | 1008 hPa | 1.27 mm | - | 91 W/m² | - |
| 1778012046 | 14.44° C | 92% | 1008.1 hPa | 4.83 mm | - | 68 W/m² | - |
| 1778011745 | 14.44° C | 91% | 1008.3 hPa | 3.56 mm | - | 82 W/m² | - |
| 1778011441 | 14.44° C | 91% | 1008.3 hPa | 0 mm | - | 32 W/m² | - |
| 1778011137 | 15° C | 91% | 1008.5 hPa | 1.27 mm | - | 26 W/m² | - |
| 1778010834 | 15° C | 91% | 1008.3 hPa | 1.27 mm | - | 45 W/m² | - |
| 1778010531 | 15° C | 90% | 1008.3 hPa | 0 mm | - | 41 W/m² | - |
| 1778010229 | 15° C | 90% | 1008.3 hPa | 3.05 mm | - | 46 W/m² | - |
| 1778009923 | 15° C | 89% | 1008.7 hPa | 7.87 mm | - | 25 W/m² | - |
* Rain latest hour (hover to see other rain measurements)
** Current wind speed in m/s (hover to see current wind gust speed)